Tin City LRRS, AK

1:10 PM AKDT on September 20, 2014 (GMT -0800)
Nome | Change Station
CLOSE
Current Station
Airport
Location: Nome,
Elevation: 36 ft
Nearby Weather Stations

Elev 36 ft 64.51 °N, 165.45 °W | Updated 17 minutes ago

Scattered Clouds
Scattered Clouds
46 °F
Feels Like 41 °F
N
9
Wind Variable Wind from WNW

Today
High -- | Low -- °F
--% Chance of Precip.
Yesterday
High -- | Low -- °F
Precip. -- in
8:48 AM 9:19 PM
Waning Crescent, 10% visible
Pressure 29.79 in
Visibility 10.0 miles
Clouds Few 1000 ft
Scattered Clouds 21000 ft
Windchill 41 °F
Dew Point 35 °F
Humidity 66%
Rainfall 0.00 in
Snow Depth 0 in , 109 in , 0 in
UV 1 out of 12
Pollen Not available.
Air Quality Not available.
Flu Activity Not available.
METAR PAOM 202053Z 30008KT 10SM FEW010 SCT210 08/02 A2979 RMK SLP087 T00780017 51013 VIA AUTODIAL

More Conditions Fewer Conditions

Pressure 29.79 in
Visibility 10.0 miles
Clouds Few 1000 ft
Scattered Clouds 21000 ft
Windchill 41 °F
Dew Point 35 °F
Humidity 66%
Rainfall 0.00 in
Snow Depth 0 in , 109 in , 0 in
UV 1 out of 12
Pollen Not available.
Air Quality Not available.
Flu Activity Not available.
METAR PAOM 202053Z 30008KT 10SM FEW010 SCT210 08/02 A2979 RMK SLP087 T00780017 51013 VIA AUTODIAL

More Conditions Fewer Conditions

10-Day Weather Forecast

Almanac

Astronomy

Sep. 20, 2014 Rise Set
Actual Time 8:48 AM AKDT 9:19 PM AKDT
Civil Twilight 7:57 AM AKDT 10:09 PM AKDT
Nautical Twilight 6:54 AM AKDT 11:12 PM AKDT
Astronomical Twilight 5:38 AM AKDT 12:27 AM AKDT
Moon 4:40 AM AKDT 8:16 PM AKDT
Length of Visible Light 14h 12m
Length of Day
12h 30m
Tomorrow will be 6m 51s shorter.
Waning Crescent, 10% of the Moon is Illuminated
Today
Waning Crescent
Sep 24
New
Oct 1
First Quarter
Oct 8
Full
Oct 15
Last Quarter

Today's Extremes

State Highs State Lows

Community

WunderPhotos

Upload Photos

1,754,947 photos uploaded!

WunderBlogs® & News

Nearby

Snow Depth

Station Depth Elevation
Pargon Creek 0 in 300 ft
Susitna Valley High 109 in 375 ft
Fort Yukon 0 in 430 ft
Moraine 0 in 2100 ft
Upper Chena 1 in 2850 ft

Earthquake Activity

City Distance Mag. Time & Date
No recent earthquake activity has been reported nearby.
Minimum magnitude displayed is 2.5.

Coastal Water Temperatures

Place Temperature
No Stations Reporting

Nearby Weather Stations